createdAt,value
2022-10-05T00:02:15.106Z,101482.06
2022-10-05T00:04:41.769Z,101484.19
2022-10-05T00:07:14.083Z,101472.97
2022-10-05T00:09:41.167Z,101466.34
2022-10-05T00:12:15.073Z,101469.97
2022-10-05T00:14:42.071Z,101483.28
2022-10-05T00:17:15.244Z,101479.50
2022-10-05T00:19:43.018Z,101472.31
2022-10-05T00:22:14.267Z,101480.06
2022-10-05T00:24:40.955Z,101475.78
2022-10-05T00:27:15.214Z,101494.66
2022-10-05T00:29:41.827Z,101483.91
2022-10-05T00:32:09.196Z,101491.72
2022-10-05T00:34:37.645Z,101489.72
2022-10-05T00:37:04.777Z,101463.84
2022-10-05T00:39:32.013Z,101489.47
2022-10-05T00:42:15.606Z,101482.97
2022-10-05T00:44:45.859Z,101475.13
2022-10-05T00:47:27.601Z,101473.94
2022-10-05T00:50:20.968Z,101465.38
2022-10-05T00:52:54.714Z,101475.03
2022-10-05T00:55:32.062Z,101431.47
2022-10-05T00:58:08.074Z,101482.34
2022-10-05T01:00:45.433Z,101480.69
2022-10-05T01:03:18.797Z,101476.25
2022-10-05T01:06:00.696Z,101480.88
2022-10-05T01:08:39.702Z,101473.00
2022-10-05T01:11:13.547Z,101467.19
2022-10-05T01:13:49.640Z,101475.50
2022-10-05T01:16:24.507Z,101479.59
2022-10-05T01:18:59.046Z,101475.06
2022-10-05T01:21:28.623Z,101463.66
2022-10-05T01:24:19.006Z,101460.41
2022-10-05T01:27:21.127Z,101474.75
2022-10-05T01:29:54.757Z,101444.47
2022-10-05T01:32:28.955Z,101478.59
2022-10-05T01:35:06.005Z,101480.69
2022-10-05T01:37:41.992Z,101456.00
2022-10-05T01:40:17.539Z,101455.72
2022-10-05T01:42:58.399Z,101463.28
2022-10-05T01:45:35.242Z,101488.53
2022-10-05T01:48:08.470Z,101494.25
2022-10-05T01:50:47.381Z,101482.06
2022-10-05T01:53:27.763Z,101445.53
2022-10-05T01:56:01.771Z,101513.56
2022-10-05T01:58:36.916Z,101509.59
2022-10-05T02:01:12.490Z,101506.66
2022-10-05T02:03:44.834Z,101512.06
2022-10-05T02:06:15.213Z,101502.47
2022-10-05T02:08:46.773Z,101505.25
2022-10-05T02:11:14.628Z,101499.88
2022-10-05T02:13:44.418Z,101503.72
2022-10-05T02:16:17.024Z,101504.50
2022-10-05T02:18:50.324Z,101518.13
2022-10-05T02:21:18.337Z,101526.16
2022-10-05T02:23:47.078Z,101512.88
2022-10-05T02:26:13.781Z,101499.00
2022-10-05T02:28:46.354Z,101493.59
2022-10-05T02:31:17.885Z,101501.25
2022-10-05T02:33:44.514Z,101497.25
2022-10-05T02:36:15.209Z,101496.47
2022-10-05T02:38:55.567Z,101470.78
2022-10-05T02:41:33.396Z,101503.25
2022-10-05T02:44:10.667Z,101508.88
2022-10-05T02:46:47.293Z,101463.34
2022-10-05T02:49:23.485Z,101506.88
2022-10-05T02:51:58.051Z,101514.75
2022-10-05T02:54:34.349Z,101510.81
2022-10-05T02:57:04.151Z,101508.09
2022-10-05T02:59:35.878Z,101491.97
2022-10-05T03:02:10.014Z,101509.25
2022-10-05T03:04:39.486Z,101500.97
2022-10-05T03:07:11.528Z,101496.28
2022-10-05T03:09:42.107Z,101494.63
2022-10-05T03:12:13.255Z,101499.03
2022-10-05T03:14:44.694Z,101489.84
2022-10-05T03:17:14.160Z,101492.31
2022-10-05T03:19:49.448Z,101491.56
2022-10-05T03:22:23.568Z,101492.97
2022-10-05T03:25:03.876Z,101498.47
2022-10-05T03:27:34.818Z,101489.25
2022-10-05T03:30:04.227Z,101486.25
2022-10-05T03:32:34.782Z,101499.00
2022-10-05T03:35:06.360Z,101500.88
2022-10-05T03:37:36.712Z,101501.69
2022-10-05T03:40:07.919Z,101505.72
2022-10-05T03:42:38.604Z,101495.84
2022-10-05T03:45:18.236Z,101490.38
2022-10-05T03:47:52.192Z,101494.13
2022-10-05T03:50:31.664Z,101483.53
2022-10-05T03:53:03.793Z,101484.16
2022-10-05T03:55:36.756Z,101481.25
2022-10-05T03:58:11.224Z,101469.09
2022-10-05T04:00:40.913Z,101469.72
2022-10-05T04:03:15.719Z,101471.38
2022-10-05T04:05:47.643Z,101470.91
2022-10-05T04:08:21.581Z,101473.91
2022-10-05T04:10:50.740Z,101490.06
2022-10-05T04:13:23.562Z,101479.56
2022-10-05T04:15:57.543Z,101486.88
2022-10-05T04:18:28.661Z,101499.50
2022-10-05T04:20:59.873Z,101499.19
2022-10-05T04:23:39.507Z,101492.38
2022-10-05T04:26:11.653Z,101507.09
2022-10-05T04:28:54.122Z,101494.22
2022-10-05T04:31:35.581Z,101499.06
2022-10-05T04:34:14.485Z,101490.56
2022-10-05T04:36:48.875Z,101497.13
2022-10-05T04:39:23.716Z,101499.38
2022-10-05T04:42:02.810Z,101508.19
2022-10-05T04:44:42.883Z,101503.34
2022-10-05T04:47:28.985Z,101482.28
2022-10-05T04:50:12.406Z,101490.91
2022-10-05T04:52:47.196Z,101479.97
2022-10-05T04:55:25.046Z,101496.41
2022-10-05T04:58:01.402Z,101488.44
2022-10-05T05:00:33.949Z,101480.88
2022-10-05T05:03:23.980Z,101491.50
2022-10-05T05:06:18.239Z,101503.69
2022-10-05T05:09:18.712Z,101495.56
2022-10-05T05:11:56.196Z,101507.22
2022-10-05T05:14:39.106Z,101506.22
2022-10-05T05:17:17.923Z,101509.69
2022-10-05T05:19:53.566Z,101518.97
2022-10-05T05:22:29.161Z,101533.22
2022-10-05T05:25:16.758Z,101517.66
2022-10-05T05:27:48.486Z,101517.78
2022-10-05T05:30:21.953Z,101517.47
2022-10-05T05:33:06.912Z,101514.97
2022-10-05T05:36:13.841Z,101519.63
2022-10-05T05:38:48.314Z,101518.28
2022-10-05T05:41:20.243Z,101537.97
2022-10-05T05:43:58.248Z,101541.56
2022-10-05T05:46:58.307Z,101520.13
2022-10-05T05:49:24.095Z,101531.25
2022-10-05T05:51:57.607Z,101548.56
2022-10-05T05:54:31.508Z,101546.88
2022-10-05T05:57:06.473Z,101552.94
2022-10-05T05:59:44.242Z,101546.34
2022-10-05T06:02:14.913Z,101529.66
2022-10-05T06:04:45.888Z,101554.72
2022-10-05T06:07:18.908Z,101549.56
2022-10-05T06:09:54.457Z,101531.41
2022-10-05T06:12:25.047Z,101554.84
2022-10-05T06:14:55.998Z,101565.53
2022-10-05T06:17:26.858Z,101562.88
2022-10-05T06:20:01.102Z,101542.19
2022-10-05T06:22:38.754Z,101553.00
2022-10-05T06:25:23.173Z,101552.88
2022-10-05T06:28:03.441Z,101567.50
2022-10-05T06:30:44.921Z,101563.59
2022-10-05T06:33:23.931Z,101570.75
2022-10-05T06:36:06.892Z,101567.47
2022-10-05T06:39:15.256Z,101559.28
2022-10-05T06:41:58.797Z,101559.59
2022-10-05T06:44:32.615Z,101569.59
2022-10-05T06:47:07.406Z,101562.72
2022-10-05T06:49:43.051Z,101561.59
2022-10-05T06:52:19.686Z,101566.28
2022-10-05T06:54:54.759Z,101562.28
2022-10-05T06:57:49.180Z,101547.50
2022-10-05T07:00:21.103Z,101565.41
2022-10-05T07:02:55.669Z,101566.63
2022-10-05T07:05:45.215Z,101577.91
2022-10-05T07:08:15.333Z,101574.03
2022-10-05T07:10:54.077Z,101585.63
2022-10-05T07:13:42.483Z,101577.34
2022-10-05T07:16:18.559Z,101569.03
2022-10-05T07:18:53.221Z,101587.41
2022-10-05T07:21:28.630Z,101575.56
2022-10-05T07:24:04.590Z,101582.81
2022-10-05T07:26:37.486Z,101586.78
2022-10-05T07:29:29.087Z,101583.03
2022-10-05T07:32:03.539Z,101562.19
2022-10-05T07:34:39.862Z,101580.19
2022-10-05T07:37:12.394Z,101571.19
2022-10-05T07:40:00.049Z,101569.78
2022-10-05T07:42:48.917Z,101567.81
2022-10-05T07:45:27.541Z,101551.34
2022-10-05T07:47:56.246Z,101558.06
2022-10-05T07:50:27.622Z,101562.28
2022-10-05T07:52:57.649Z,101570.22
2022-10-05T07:55:26.269Z,101573.59
2022-10-05T07:58:06.155Z,101573.69
2022-10-05T08:01:04.246Z,101575.59
2022-10-05T08:03:42.848Z,101576.78
2022-10-05T08:06:12.039Z,101564.09
2022-10-05T08:08:47.949Z,101567.84
2022-10-05T08:11:18.848Z,101547.81
2022-10-05T08:13:51.711Z,101541.03
2022-10-05T08:16:20.112Z,101551.59
2022-10-05T08:18:56.196Z,101572.63
2022-10-05T08:21:27.545Z,101569.03
2022-10-05T08:23:57.850Z,101572.81
2022-10-05T08:26:31.602Z,101570.63
2022-10-05T08:29:13.658Z,101557.19
2022-10-05T08:31:46.849Z,101563.25
2022-10-05T08:34:22.583Z,101556.53
2022-10-05T08:36:59.373Z,101560.44
2022-10-05T08:39:30.565Z,101543.84
2022-10-05T08:42:27.388Z,101546.13
2022-10-05T08:45:26.112Z,101539.81
2022-10-05T08:48:14.906Z,101536.44
2022-10-05T08:51:12.496Z,101548.22
2022-10-05T08:54:20.731Z,101551.03
2022-10-05T08:56:59.676Z,101550.81
2022-10-05T08:59:52.484Z,101556.97
2022-10-05T09:02:28.317Z,101549.00
2022-10-05T09:05:18.001Z,101556.94
2022-10-05T09:08:03.337Z,101546.88
2022-10-05T09:10:58.106Z,101555.75
2022-10-05T09:14:11.063Z,101543.88
2022-10-05T09:17:09.366Z,101533.06
2022-10-05T09:19:59.890Z,101540.22
2022-10-05T09:22:45.685Z,101548.00
2022-10-05T09:25:22.781Z,101527.16
2022-10-05T09:27:56.181Z,101521.78
2022-10-05T09:30:27.357Z,101533.22
2022-10-05T09:33:31.553Z,101544.75
2022-10-05T09:36:38.046Z,101531.06
2022-10-05T09:39:41.447Z,101506.19
2022-10-05T09:42:43.535Z,101494.44
2022-10-05T09:45:36.181Z,101516.97
2022-10-05T09:48:34.570Z,101472.09
2022-10-05T09:51:46.130Z,101486.31
2022-10-05T09:54:54.445Z,101483.25
2022-10-05T09:57:56.653Z,101470.16
2022-10-05T10:00:37.139Z,101440.00
2022-10-05T10:03:28.809Z,101460.38
2022-10-05T10:06:06.853Z,101451.59
2022-10-05T10:08:45.687Z,101492.50
2022-10-05T10:11:28.968Z,101475.50
2022-10-05T10:14:20.278Z,101472.13
2022-10-05T10:17:00.240Z,101457.03
2022-10-05T10:20:01.365Z,101464.28
2022-10-05T10:23:04.557Z,101509.13
2022-10-05T10:25:48.135Z,101506.31
2022-10-05T10:28:34.960Z,101502.31
2022-10-05T10:31:41.151Z,101474.19
2022-10-05T10:34:36.904Z,101478.34
2022-10-05T10:37:33.460Z,101478.34
2022-10-05T10:40:20.212Z,101472.06
2022-10-05T10:43:04.761Z,101476.34
2022-10-05T10:45:48.110Z,101469.06
2022-10-05T10:48:50.072Z,101455.91
2022-10-05T10:51:24.852Z,101457.50
2022-10-05T10:54:34.886Z,101454.75
2022-10-05T10:57:07.019Z,101448.22
2022-10-05T11:00:19.696Z,101452.47
2022-10-05T11:03:15.876Z,101441.88
2022-10-05T11:06:18.371Z,101438.00
2022-10-05T11:09:14.950Z,101440.19
2022-10-05T11:12:19.671Z,101422.91
2022-10-05T11:15:09.239Z,101431.97
2022-10-05T11:17:59.625Z,101416.19
2022-10-05T11:20:59.833Z,101422.56
2022-10-05T11:23:50.013Z,101428.22
2022-10-05T11:26:42.249Z,101395.25
2022-10-05T11:29:41.328Z,101377.34
2022-10-05T11:32:39.196Z,101418.28
2022-10-05T11:35:32.512Z,101372.53
2022-10-05T11:38:15.204Z,101376.41
2022-10-05T11:41:29.047Z,101378.78
2022-10-05T11:44:43.229Z,101364.19
2022-10-05T11:47:17.148Z,101335.75
2022-10-05T11:49:52.296Z,101363.63
2022-10-05T11:52:24.437Z,101401.69
2022-10-05T11:55:13.321Z,101351.59
2022-10-05T11:57:50.396Z,101369.97
2022-10-05T12:00:28.574Z,101324.53
2022-10-05T12:03:35.730Z,101331.00
2022-10-05T12:06:15.775Z,101368.31
2022-10-05T12:09:01.223Z,101364.31
2022-10-05T12:12:02.813Z,101332.84
2022-10-05T12:14:48.510Z,101339.25
2022-10-05T12:17:29.126Z,101367.91
2022-10-05T12:20:00.385Z,101364.16
2022-10-05T12:22:40.829Z,101364.75
2022-10-05T12:25:27.610Z,101304.44
2022-10-05T12:28:14.721Z,101342.09
2022-10-05T12:31:13.960Z,101321.66
2022-10-05T12:33:50.707Z,101279.22
2022-10-05T12:36:59.219Z,101319.38
2022-10-05T12:39:32.357Z,101347.41
2022-10-05T12:43:11.430Z,101346.31
2022-10-05T12:56:44.121Z,101289.81
2022-10-05T13:06:45.288Z,101316.31
2022-10-05T13:09:47.317Z,101321.16
2022-10-05T13:13:23.197Z,101306.19
2022-10-05T13:16:11.796Z,101306.13
2022-10-05T13:19:21.557Z,101311.28
2022-10-05T13:23:08.467Z,101311.34
2022-10-05T13:26:01.419Z,101310.41
2022-10-05T13:32:12.151Z,101308.66
2022-10-05T13:39:15.372Z,101286.78
2022-10-05T13:44:59.447Z,101291.72
2022-10-05T13:47:56.282Z,101261.41
2022-10-05T13:50:33.904Z,101276.41
2022-10-05T13:53:34.011Z,101274.50
2022-10-05T13:56:38.827Z,101264.09
2022-10-05T13:59:43.745Z,101291.03
2022-10-05T14:02:52.127Z,101232.25
2022-10-05T14:06:05.421Z,101290.81
2022-10-05T14:12:37.010Z,101254.88
2022-10-05T14:15:26.786Z,101270.53
2022-10-05T14:18:04.103Z,101267.78
2022-10-05T14:20:41.570Z,101251.31
2022-10-05T14:23:18.479Z,101226.44
2022-10-05T14:25:59.605Z,101240.25
2022-10-05T14:28:30.419Z,101271.16
2022-10-05T14:31:13.788Z,101237.13
2022-10-05T14:33:52.011Z,101206.91
2022-10-05T14:36:35.602Z,101201.19
2022-10-05T14:39:02.981Z,101228.81
2022-10-05T14:41:46.343Z,101205.78
2022-10-05T14:44:47.298Z,101221.50
2022-10-05T14:47:21.031Z,101238.09
2022-10-05T14:49:52.536Z,101218.78
2022-10-05T14:52:51.661Z,101214.91
2022-10-05T14:55:44.184Z,101256.53
2022-10-05T14:58:59.189Z,101211.00
2022-10-05T15:01:34.880Z,101232.53
2022-10-05T15:04:35.037Z,101237.53
2022-10-05T15:07:18.655Z,101236.16
2022-10-05T15:10:21.763Z,101255.25
2022-10-05T15:12:50.876Z,101237.28
2022-10-05T15:15:28.462Z,101205.38
2022-10-05T15:18:15.101Z,101248.81
2022-10-05T15:20:55.964Z,101212.81
2022-10-05T15:23:36.178Z,101269.28
2022-10-05T15:26:40.860Z,101219.31
2022-10-05T15:29:36.966Z,101270.59
2022-10-05T15:32:22.993Z,101251.84
2022-10-05T15:35:11.410Z,101206.84
2022-10-05T15:40:52.756Z,101268.63
2022-10-05T15:43:31.440Z,101199.56
2022-10-05T15:46:15.964Z,101249.31
2022-10-05T15:48:52.988Z,101229.41
2022-10-05T15:51:38.631Z,101217.81
2022-10-05T15:54:38.434Z,101196.09
2022-10-05T15:57:20.225Z,101222.69
2022-10-05T16:00:11.138Z,101217.94
2022-10-05T16:02:54.876Z,101246.25
2022-10-05T16:05:33.784Z,101256.25
2022-10-05T16:08:01.091Z,101207.09
2022-10-05T16:10:39.486Z,101221.78
2022-10-05T16:13:35.110Z,101225.41
2022-10-05T16:16:21.452Z,101215.13
2022-10-05T16:19:03.345Z,101260.66
2022-10-05T16:21:40.271Z,101269.88
2022-10-05T16:24:24.607Z,101262.16
2022-10-05T16:29:50.780Z,101281.56
2022-10-05T16:36:07.829Z,101283.41
2022-10-05T16:38:58.301Z,101288.00
2022-10-05T16:42:07.410Z,101303.44
2022-10-05T16:45:10.410Z,101251.59
2022-10-05T16:47:46.997Z,101266.88
2022-10-05T16:50:40.769Z,101294.56
2022-10-05T16:53:34.154Z,101243.84
2022-10-05T16:56:09.206Z,101305.84
2022-10-05T16:59:08.285Z,101296.69
2022-10-05T17:01:57.762Z,101269.78
2022-10-05T17:04:41.351Z,101260.47
2022-10-05T17:07:42.126Z,101307.53
2022-10-05T17:10:48.155Z,101316.47
2022-10-05T17:13:39.571Z,101322.25
2022-10-05T17:16:19.707Z,101294.53
2022-10-05T17:19:21.124Z,101301.50
2022-10-05T17:21:57.589Z,101297.66
2022-10-05T17:24:37.131Z,101324.91
2022-10-05T17:27:16.752Z,101281.09
2022-10-05T17:29:50.707Z,101304.75
2022-10-05T17:32:57.759Z,101325.63
2022-10-05T17:35:58.468Z,101313.03
2022-10-05T17:38:51.233Z,101339.16
2022-10-05T17:41:30.099Z,101282.97
2022-10-05T17:44:20.695Z,101336.72
2022-10-05T17:46:49.706Z,101303.06
2022-10-05T17:49:46.912Z,101336.84
2022-10-05T17:52:41.557Z,101288.94
2022-10-05T17:55:38.446Z,101287.78
2022-10-05T17:58:57.124Z,101348.03
2022-10-05T18:01:45.530Z,101326.53
2022-10-05T18:04:50.259Z,101323.31
2022-10-05T18:07:58.991Z,101350.06
2022-10-05T18:11:14.584Z,101292.72
2022-10-05T18:17:45.231Z,101351.88
2022-10-05T18:20:32.817Z,101283.94
2022-10-05T18:23:29.684Z,101343.34
2022-10-05T18:26:16.254Z,101303.53
2022-10-05T18:29:19.598Z,101279.69
2022-10-05T18:31:57.170Z,101318.91
2022-10-05T18:34:38.587Z,101325.34
2022-10-05T18:37:28.063Z,101365.28
2022-10-05T18:40:13.095Z,101326.50
2022-10-05T18:42:48.471Z,101339.75
2022-10-05T18:45:24.584Z,101325.75
2022-10-05T18:48:06.757Z,101347.56
2022-10-05T18:50:43.803Z,101354.41
2022-10-05T18:53:31.624Z,101314.16
2022-10-05T18:56:14.475Z,101321.94
2022-10-05T18:58:56.777Z,101297.97
2022-10-05T19:02:03.812Z,101318.56
2022-10-05T19:04:43.647Z,101346.41
2022-10-05T19:07:28.395Z,101293.69
2022-10-05T19:10:08.320Z,101320.97
2022-10-05T19:12:52.775Z,101340.00
2022-10-05T19:15:28.342Z,101336.69
2022-10-05T19:18:35.077Z,101351.78
2022-10-05T19:21:16.651Z,101344.56
2022-10-05T19:24:23.360Z,101341.94
2022-10-05T19:27:00.887Z,101347.00
2022-10-05T19:29:44.605Z,101309.69
2022-10-05T19:32:23.114Z,101339.28
2022-10-05T19:35:14.252Z,101334.72
2022-10-05T19:37:50.507Z,101340.09
2022-10-05T19:40:26.174Z,101361.06
2022-10-05T19:43:17.994Z,101360.81
2022-10-05T19:45:58.637Z,101321.06
2022-10-05T19:48:32.138Z,101331.69
2022-10-05T19:51:01.556Z,101353.03
2022-10-05T19:53:36.233Z,101324.56
2022-10-05T19:56:17.148Z,101356.81
2022-10-05T19:58:45.827Z,101336.16
2022-10-05T20:01:22.882Z,101328.94
2022-10-05T20:03:53.791Z,101325.75
2022-10-05T20:06:21.570Z,101367.34
2022-10-05T20:08:56.685Z,101351.16
2022-10-05T20:11:28.534Z,101343.28
2022-10-05T20:14:19.445Z,101360.31
2022-10-05T20:16:46.193Z,101342.19
2022-10-05T20:19:35.160Z,101360.63
2022-10-05T20:22:22.914Z,101361.06
2022-10-05T20:24:51.754Z,101375.88
2022-10-05T20:27:36.607Z,101300.81
2022-10-05T20:30:04.015Z,101373.91
2022-10-05T20:32:33.946Z,101363.88
2022-10-05T20:35:01.309Z,101350.72
2022-10-05T20:37:28.372Z,101367.44
2022-10-05T20:39:55.381Z,101370.63
2022-10-05T20:42:22.271Z,101356.19
2022-10-05T20:44:55.836Z,101360.06
2022-10-05T20:47:23.673Z,101402.22
2022-10-05T20:49:53.666Z,101351.66
2022-10-05T20:52:21.373Z,101368.84
2022-10-05T20:54:48.105Z,101366.31
2022-10-05T20:57:14.887Z,101408.53
2022-10-05T20:59:44.775Z,101384.97
2022-10-05T21:02:38.612Z,101384.94
2022-10-05T21:05:09.189Z,101415.59
2022-10-05T21:07:36.077Z,101347.09
2022-10-05T21:10:05.803Z,101378.53
2022-10-05T21:12:32.633Z,101393.09
2022-10-05T21:14:59.252Z,101415.41
2022-10-05T21:17:27.315Z,101412.84
2022-10-05T21:19:53.996Z,101415.22
2022-10-05T21:22:22.195Z,101412.69
2022-10-05T21:24:48.800Z,101417.44
2022-10-05T21:27:15.372Z,101416.53
2022-10-05T21:29:42.068Z,101429.13
2022-10-05T21:32:08.867Z,101418.06
2022-10-05T21:34:38.321Z,101434.34
2022-10-05T21:37:04.769Z,101407.09
2022-10-05T21:39:31.412Z,101413.88
2022-10-05T21:41:58.013Z,101411.34
2022-10-05T21:44:24.918Z,101404.94
2022-10-05T21:46:51.956Z,101415.56
2022-10-05T21:49:19.834Z,101419.44
2022-10-05T21:51:50.346Z,101418.72
2022-10-05T21:54:21.149Z,101417.50
2022-10-05T21:56:50.675Z,101430.38
2022-10-05T21:59:20.124Z,101416.91
2022-10-05T22:01:46.699Z,101430.28
2022-10-05T22:04:13.310Z,101427.78
2022-10-05T22:06:39.927Z,101432.41
2022-10-05T22:09:07.911Z,101429.16
2022-10-05T22:11:34.704Z,101420.50
2022-10-05T22:14:01.348Z,101429.56
2022-10-05T22:16:29.571Z,101432.59
2022-10-05T22:18:56.219Z,101431.88
2022-10-05T22:21:22.880Z,101420.75
2022-10-05T22:23:49.814Z,101432.59
2022-10-05T22:26:21.277Z,101433.66
2022-10-05T22:28:48.106Z,101434.84
2022-10-05T22:31:15.360Z,101434.78
2022-10-05T22:33:42.021Z,101440.41
2022-10-05T22:36:09.599Z,101432.41
2022-10-05T22:38:36.454Z,101433.25
2022-10-05T22:41:03.120Z,101418.56
2022-10-05T22:43:31.081Z,101441.81
2022-10-05T22:45:57.737Z,101415.22
2022-10-05T22:48:24.451Z,101443.22
2022-10-05T22:50:51.052Z,101434.88
2022-10-05T22:53:17.952Z,101442.06
2022-10-05T22:55:44.639Z,101436.13
2022-10-05T22:58:11.228Z,101441.53
2022-10-05T23:00:57.649Z,101430.28
2022-10-05T23:03:25.151Z,101434.34
2022-10-05T23:05:56.332Z,101428.91
2022-10-05T23:08:23.011Z,101413.69
2022-10-05T23:10:49.671Z,101436.25
2022-10-05T23:13:16.246Z,101439.94
2022-10-05T23:15:44.253Z,101441.31
2022-10-05T23:18:11.674Z,101441.41
2022-10-05T23:20:38.218Z,101436.34
2022-10-05T23:23:04.870Z,101430.41
2022-10-05T23:25:31.559Z,101439.72
2022-10-05T23:27:58.186Z,101447.66
2022-10-05T23:30:24.963Z,101451.28
2022-10-05T23:32:53.234Z,101436.47
2022-10-05T23:35:19.877Z,101443.31
2022-10-05T23:37:46.504Z,101440.56
2022-10-05T23:40:14.054Z,101432.53
2022-10-05T23:42:41.003Z,101438.31
2022-10-05T23:45:08.803Z,101443.47
2022-10-05T23:47:35.786Z,101422.47
2022-10-05T23:50:05.603Z,101443.25
2022-10-05T23:52:32.188Z,101436.28
2022-10-05T23:54:59.124Z,101435.16
2022-10-05T23:57:25.784Z,101443.84
2022-10-05T23:59:52.582Z,101446.03
